METAR Data
IDs: Format: Raw Decoded Include TAF

Data at: 1241 UTC 26 Feb 2021

KBKL 261153Z 00000KT 9SM CLR M01/M04 A3039 RMK AO2 SLP296 T10111039 10011 21017 50007